Weather History for EHVL - May, 2013

Change the Weather History Date:

Thursday, May 16, 2013

  Actual Average Record
Temperature  
Mean Temperature 45 °F -  
Max Temperature 53 °F 58 °F 80 °F (2000)
Min Temperature 37 °F 49 °F 37 °F (2013)
Degree Days  
Heating Degree Days 20    
Moisture  
Dew Point 42 °F    
Average Humidity 91    
Maximum Humidity 100    
Minimum Humidity 76    
Precipitation  
Precipitation 0.00 in - - ()
Sea Level Pressure  
Sea Level Pressure 29.56 in    
Wind  
Wind Speed 11 mph ()    
Max Wind Speed 33 mph    
Max Gust Speed -    
Visibility 5.2 miles    
Events Fog , Rain    
Averages and records for this station are not official NWS values.
T = Trace of Precipitation, MM = Missing Value Source: Averaged Metar Reports

Daily Weather History Graph

Daily Weather History Graph

Search for Another Location

Airport or City:

Trip Planner

Search our weather history database for the weather conditions in past years. The results will help you decide how hot, cold, wet, or windy it might be!

Date:

Astronomy

May. 16, 2013 Rise Set
Actual Time 5:39 AM CEST 9:35 PM CEST
Civil Twilight 4:54 AM CEST 10:19 PM CEST
Nautical Twilight 3:51 AM CEST 11:23 PM CEST
Astronomical Twilight 2:09 AM CEST 1:04 AM CEST
Moon 11:11 AM CEST (5/16) 1:34 AM CEST (5/16)
Length of Visible Light 17h 25m
Length of Day
15h 55m
Waxing Crescent, 33% of the Moon is Illuminated
May 16
Waxing Crescent
May 18
First Quarter
May 25
Full
May 31
Last Quarter
Jun 8
New

Hourly Weather History & Observations

Time (CEST) Temp. Windchill Dew Point Humidity Pressure Visibility Wind Dir Wind Speed Gust Speed Precip Events Conditions
12:25 AM 48.2 °F - 42.8 °F 82% 29.59 in 6.2 mi SW 17.3 mph - N/A   Unknown
12:55 AM 48.2 °F - 44.6 °F 87% 29.59 in 6.2 mi SW 15.0 mph - N/A   Unknown
1:25 AM 48.2 °F - 44.6 °F 87% 29.59 in 6.2 mi SW 12.7 mph - N/A   Unknown
1:55 AM 46.4 °F 41.5 °F 42.8 °F 87% 29.59 in 6.2 mi SW 10.4 mph - N/A   Mostly Cloudy
2:25 AM 46.4 °F 42.4 °F 42.8 °F 87% 29.59 in 6.2 mi SSW 8.1 mph - N/A   Unknown
2:55 AM 44.6 °F 40.2 °F 42.8 °F 93% 29.59 in 6.2 mi SSW 8.1 mph - N/A   Unknown
3:25 AM 42.8 °F 38.6 °F 41.0 °F 93% 29.59 in 6.2 mi SSW 6.9 mph - N/A   Unknown
3:26 AM 42.8 °F 38.6 °F 41.0 °F 93% 29.59 in 4.3 mi SSW 6.9 mph - N/A   Mist
3:33 AM 41.0 °F 36.4 °F 39.2 °F 93% 29.59 in 5.0 mi SSW 6.9 mph - N/A   Mist
3:42 AM 41.0 °F 37.1 °F 39.2 °F 93% 29.59 in 4.3 mi South 5.8 mph - N/A   Mist
3:55 AM 39.2 °F 35.9 °F 37.4 °F 93% 29.59 in 2.8 mi South 4.6 mph - N/A   Mist
3:57 AM 39.2 °F 35.9 °F 37.4 °F 93% 29.59 in 3.1 mi South 4.6 mph - N/A   Mist
4:03 AM 39.2 °F 35.9 °F 37.4 °F 93% 29.59 in 6.2 mi South 4.6 mph - N/A   Unknown
4:07 AM 41.0 °F 38.0 °F 39.2 °F 93% 29.59 in 2.2 mi South 4.6 mph - N/A   Mist
4:11 AM 41.0 °F 38.0 °F 39.2 °F 93% 29.59 in 3.1 mi South 4.6 mph - N/A   Mist
4:16 AM 39.2 °F 35.9 °F 37.4 °F 93% 29.59 in 5.0 mi South 4.6 mph - N/A   Mist
4:25 AM 39.2 °F 35.9 °F 37.4 °F 93% 29.59 in 3.7 mi South 4.6 mph - N/A   Mist
4:31 AM 39.2 °F 37.0 °F 37.4 °F 93% 29.59 in - South 3.5 mph - N/A   Mist
4:37 AM 39.2 °F 37.0 °F 37.4 °F 93% 29.59 in 3.1 mi South 3.5 mph - N/A   Mist
4:41 AM 37.4 °F 34.9 °F 37.4 °F 100% 29.59 in 6.2 mi South 3.5 mph - N/A   Unknown
4:45 AM 37.4 °F 34.9 °F 35.6 °F 93% 29.59 in 3.7 mi South 3.5 mph - N/A   Mist
4:46 AM 37.4 °F 34.9 °F 37.4 °F 100% 29.59 in 6.2 mi South 3.5 mph - N/A   Unknown
4:55 AM 37.4 °F 34.9 °F 37.4 °F 100% 29.59 in 1.5 mi South 3.5 mph - N/A   Mist
4:59 AM 37.4 °F 34.9 °F 35.6 °F 93% 29.59 in 5.6 mi South 3.5 mph - N/A   Mist
5:03 AM 37.4 °F 34.9 °F 35.6 °F 93% 29.59 in 2.2 mi South 3.5 mph - N/A   Mist
5:11 AM 39.2 °F 35.9 °F 37.4 °F 93% 29.59 in - South 4.6 mph - N/A   Mist
5:14 AM 39.2 °F 35.9 °F 37.4 °F 93% 29.59 in 1.8 mi South 4.6 mph - N/A   Mist
5:19 AM 37.4 °F 34.9 °F 37.4 °F 100% 29.59 in 6.2 mi South 3.5 mph - N/A   Unknown
5:25 AM 37.4 °F 34.9 °F 35.6 °F 93% 29.59 in 6.2 mi South 3.5 mph - N/A   Unknown
5:32 AM 37.4 °F 34.9 °F 35.6 °F 93% 29.59 in 1.9 mi SSE 3.5 mph - N/A   Partly Cloudy
5:35 AM 37.4 °F 34.9 °F 37.4 °F 100% 29.59 in 0.8 mi SSE 3.5 mph - N/A   Scattered Clouds
5:40 AM 37.4 °F 34.9 °F 37.4 °F 100% 29.59 in 2.2 mi South 3.5 mph - N/A   Mostly Cloudy
5:43 AM 37.4 °F - 35.6 °F 93% 29.59 in - South 2.3 mph - N/A   Overcast
5:49 AM 37.4 °F - 37.4 °F 100% 29.59 in 5.0 mi South 2.3 mph - N/A   Overcast
5:55 AM 39.2 °F 37.0 °F 37.4 °F 93% 29.59 in 1.9 mi South 3.5 mph - N/A   Overcast
6:00 AM 39.2 °F - 37.4 °F 93% 29.59 in 0.9 mi South 2.3 mph - N/A   Overcast
6:02 AM 39.2 °F - 37.4 °F 93% 29.59 in - South 2.3 mph - N/A Fog Fog
6:09 AM 39.2 °F - 37.4 °F 93% 29.59 in - South 2.3 mph - N/A   Overcast
6:13 AM 39.2 °F - 37.4 °F 93% 29.59 in 3.7 mi SSE 2.3 mph - N/A   Overcast
6:14 AM 39.2 °F - 37.4 °F 93% 29.59 in 6.2 mi SSE 2.3 mph - N/A   Overcast
6:25 AM 39.2 °F - 39.2 °F 100% 29.59 in 6.2 mi SE 2.3 mph - N/A   Overcast
6:35 AM 41.0 °F - 41.0 °F 100% 29.59 in 5.6 mi East 1.2 mph - N/A   Overcast
6:43 AM 42.8 °F - 41.0 °F 93% 29.59 in 4.3 mi East 1.2 mph - N/A   Overcast
6:44 AM 42.8 °F - 41.0 °F 93% 29.59 in 5.6 mi ENE 2.3 mph - N/A   Overcast
6:55 AM 42.8 °F 41.1 °F 42.8 °F 100% 29.59 in 5.6 mi ENE 3.5 mph - N/A   Overcast
6:59 AM 42.8 °F 41.1 °F 42.8 °F 100% 29.59 in 4.3 mi ENE 3.5 mph - N/A   Overcast
7:03 AM 44.6 °F 43.1 °F 42.8 °F 93% 29.59 in 5.0 mi NE 3.5 mph - N/A   Overcast
7:04 AM 44.6 °F 43.1 °F 42.8 °F 93% 29.59 in 4.3 mi NE 3.5 mph - N/A   Overcast
7:11 AM 44.6 °F 43.1 °F 42.8 °F 93% 29.59 in 5.6 mi ENE 3.5 mph - N/A   Overcast
7:16 AM 44.6 °F 43.1 °F 44.6 °F 100% 29.62 in 4.3 mi East 3.5 mph - N/A   Overcast
7:25 AM 46.4 °F 44.3 °F 44.6 °F 93% 29.62 in 5.6 mi East 4.6 mph - N/A   Overcast
7:31 AM 46.4 °F 43.5 °F 44.6 °F 93% 29.59 in 6.2 mi ENE 5.8 mph - N/A   Overcast
7:35 AM 46.4 °F 42.9 °F 44.6 °F 93% 29.59 in 6.2 mi ENE 6.9 mph - N/A   Mostly Cloudy
7:36 AM 46.4 °F 42.9 °F 46.4 °F 100% 29.59 in 5.6 mi ENE 6.9 mph - N/A   Mostly Cloudy
7:44 AM 48.2 °F - 46.4 °F 93% 29.59 in 5.6 mi East 5.8 mph - N/A   Mostly Cloudy
7:45 AM 48.2 °F - 48.2 °F 100% 29.59 in 5.0 mi East 6.9 mph - N/A   Overcast
7:55 AM 48.2 °F - 48.2 °F 100% 29.59 in 5.6 mi East 8.1 mph - N/A   Mostly Cloudy
8:05 AM 48.2 °F - 48.2 °F 100% 29.59 in 6.2 mi East 9.2 mph - N/A   Mostly Cloudy
8:25 AM 50.0 °F - 48.2 °F 94% 29.59 in 6.2 mi East 11.5 mph - N/A   Overcast
8:55 AM 50.0 °F - 46.4 °F 87% 29.59 in 6.2 mi East 10.4 mph - N/A   Overcast
9:25 AM 51.8 °F - 44.6 °F 76% 29.59 in 6.2 mi East 12.7 mph - N/A   Overcast
9:55 AM 51.8 °F - 44.6 °F 76% 29.59 in 6.2 mi East 13.8 mph - N/A   Overcast
10:25 AM 51.8 °F - 44.6 °F 76% 29.59 in 6.2 mi East 15.0 mph - N/A   Mostly Cloudy
10:55 AM 51.8 °F - 44.6 °F 76% 29.59 in 6.2 mi East 13.8 mph - N/A   Overcast
11:25 AM 53.6 °F - 46.4 °F 77% 29.59 in 6.2 mi East 13.8 mph - N/A   Mostly Cloudy
11:55 AM 53.6 °F - 46.4 °F 77% 29.59 in 6.2 mi East 13.8 mph - N/A   Partly Cloudy
12:25 PM 53.6 °F - 46.4 °F 77% 29.59 in 6.2 mi ENE 11.5 mph - N/A   Scattered Clouds
12:55 PM 53.6 °F - 46.4 °F 77% 29.59 in 6.2 mi ENE 10.4 mph - N/A   Overcast
1:25 PM 53.6 °F - 46.4 °F 77% 29.59 in 6.2 mi NNE 11.5 mph - N/A   Overcast
1:55 PM 53.6 °F - 46.4 °F 77% 29.56 in 6.2 mi NNE 13.8 mph - N/A Rain Light Rain
2:25 PM 51.8 °F - 44.6 °F 76% 29.56 in 6.2 mi NNE 15.0 mph - N/A Rain Light Rain
2:55 PM 51.8 °F - 44.6 °F 76% 29.56 in 6.2 mi NNE 17.3 mph - N/A   Overcast
3:25 PM 50.0 °F - 44.6 °F 82% 29.56 in 6.2 mi NNE 17.3 mph - N/A   Overcast
3:55 PM 50.0 °F - 44.6 °F 82% 29.53 in 6.2 mi North 18.4 mph - N/A   Overcast
4:25 PM 50.0 °F - 44.6 °F 82% 29.53 in 6.2 mi NNE 19.6 mph - N/A Rain Drizzle
4:55 PM 48.2 °F - 44.6 °F 87% 29.50 in 6.2 mi NNE 23.0 mph - N/A Rain Light Rain
5:25 PM 48.2 °F - 44.6 °F 87% 29.53 in 6.2 mi NNE 21.9 mph - N/A Rain Light Rain
5:55 PM 48.2 °F - 44.6 °F 87% 29.53 in 6.2 mi NNE 20.7 mph - N/A Rain Light Rain
6:25 PM 46.4 °F 38.3 °F 44.6 °F 93% 29.53 in 6.2 mi NNE 23.0 mph - N/A Rain Light Rain
6:40 PM 46.4 °F 38.3 °F 44.6 °F 93% 29.53 in 3.7 mi NNE 23.0 mph - N/A Rain Rain Showers
6:51 PM 46.4 °F 37.9 °F 44.6 °F 93% 29.50 in - NNE 25.3 mph - N/A   Overcast
6:55 PM 46.4 °F 37.9 °F 44.6 °F 93% 29.50 in 3.7 mi NNE 25.3 mph - N/A   Overcast
6:56 PM 46.4 °F 38.1 °F 44.6 °F 93% 29.50 in - North 24.2 mph - N/A   Overcast
7:11 PM 46.4 °F 37.9 °F 44.6 °F 93% 29.50 in 3.1 mi NNE 25.3 mph - N/A   Mostly Cloudy
7:15 PM 46.4 °F 37.9 °F 44.6 °F 93% 29.50 in 3.7 mi NNE 25.3 mph - N/A   Mostly Cloudy
7:19 PM 46.4 °F 38.1 °F 44.6 °F 93% 29.50 in 5.0 mi NNE 24.2 mph - N/A Rain Light Rain Showers
7:25 PM 46.4 °F 38.1 °F 44.6 °F 93% 29.50 in 4.3 mi NNE 24.2 mph - N/A Rain Light Rain Showers
7:30 PM 46.4 °F 38.1 °F 44.6 °F 93% 29.50 in 5.0 mi NNE 24.2 mph - N/A   Overcast
7:40 PM 46.4 °F 38.1 °F 44.6 °F 93% 29.50 in 6.2 mi North 24.2 mph - N/A Rain Light Rain Showers
7:50 PM 46.4 °F 38.1 °F 44.6 °F 93% 29.50 in 6.2 mi North 24.2 mph - N/A Rain Light Rain
7:55 PM 46.4 °F 37.9 °F 44.6 °F 93% 29.50 in 6.2 mi North 25.3 mph - N/A Rain Light Rain
8:20 PM 46.4 °F 37.4 °F 44.6 °F 93% 29.50 in 6.2 mi North 28.8 mph - N/A Rain Light Rain Showers
8:25 PM 46.4 °F 37.4 °F 42.8 °F 87% 29.50 in 6.2 mi North 28.8 mph - N/A Rain Light Rain
8:30 PM 46.4 °F 37.2 °F 42.8 °F 87% 29.50 in 6.2 mi North 29.9 mph - N/A Rain Light Rain
8:40 PM 46.4 °F 37.0 °F 44.6 °F 93% 29.47 in 6.2 mi North 31.1 mph - N/A Rain Light Rain
8:55 PM 46.4 °F 36.9 °F 42.8 °F 87% 29.47 in 6.2 mi North 32.2 mph - N/A   Drizzle
9:25 PM 46.4 °F 36.9 °F 42.8 °F 87% 29.47 in 6.2 mi North 32.2 mph - N/A Rain Light Rain
9:51 PM 46.4 °F 36.7 °F 44.6 °F 93% 29.47 in 6.2 mi North 33.4 mph - N/A Rain Light Rain
9:55 PM 46.4 °F 36.9 °F 44.6 °F 93% 29.47 in 6.2 mi North 32.2 mph - N/A Rain Light Rain
10:03 PM 46.4 °F 36.9 °F 44.6 °F 93% 29.47 in 6.2 mi North 32.2 mph - N/A Rain Light Rain
10:04 PM 46.4 °F 36.9 °F 44.6 °F 93% 29.47 in 6.2 mi North 32.2 mph - N/A   Light Drizzle
10:11 PM 46.4 °F 36.9 °F 44.6 °F 93% 29.47 in 6.2 mi North 32.2 mph - N/A   Light Drizzle
10:25 PM 46.4 °F 37.0 °F 44.6 °F 93% 29.47 in 6.2 mi North 31.1 mph - N/A   Mostly Cloudy
10:28 PM 46.4 °F 37.0 °F 44.6 °F 93% 29.47 in 6.2 mi North 31.1 mph - N/A   Overcast
10:33 PM 46.4 °F 37.0 °F 44.6 °F 93% 29.47 in 6.2 mi North 31.1 mph - N/A   Mostly Cloudy
10:37 PM 46.4 °F 37.2 °F 44.6 °F 93% 29.47 in 6.2 mi North 29.9 mph - N/A   Mostly Cloudy
10:55 PM 46.4 °F 37.4 °F 44.6 °F 93% 29.47 in 6.2 mi North 28.8 mph - N/A   Overcast
11:25 PM 46.4 °F 37.7 °F 44.6 °F 93% 29.47 in 6.2 mi North 26.5 mph - N/A   Mostly Cloudy
11:55 PM 46.4 °F 37.9 °F 44.6 °F 93% 29.47 in 6.2 mi North 25.3 mph - N/A   Mostly Cloudy